createdAt,value
2022-08-20T00:00:22.478Z,15.10
2022-08-20T00:03:30.451Z,12.13
2022-08-20T00:06:35.214Z,10.77
2022-08-20T00:09:41.596Z,11.73
2022-08-20T00:12:49.125Z,10.35
2022-08-20T00:15:53.670Z,11.00
2022-08-20T00:18:59.704Z,14.60
2022-08-20T00:22:04.761Z,13.57
2022-08-20T00:25:09.834Z,14.40
2022-08-20T00:28:14.847Z,9.40
2022-08-20T00:31:22.588Z,11.20
2022-08-20T00:34:27.976Z,7.60
2022-08-20T00:37:32.490Z,8.57
2022-08-20T00:43:49.030Z,7.38
2022-08-20T00:46:54.289Z,8.73
2022-08-20T00:49:58.808Z,8.50
2022-08-20T00:53:07.590Z,11.43
2022-08-20T00:56:13.511Z,13.18
2022-08-20T00:59:23.697Z,10.07
2022-08-20T01:02:30.314Z,9.15
2022-08-20T01:05:35.892Z,8.80
2022-08-20T01:08:42.619Z,10.48
2022-08-20T01:11:47.524Z,9.52
2022-08-20T01:14:52.957Z,12.25
2022-08-20T01:18:00.427Z,9.88
2022-08-20T01:21:06.732Z,9.30
2022-08-20T01:24:25.077Z,14.90
2022-08-20T01:27:30.893Z,7.55
2022-08-20T01:30:38.327Z,9.95
2022-08-20T01:33:44.261Z,10.13
2022-08-20T01:36:53.350Z,11.27
2022-08-20T01:39:58.719Z,8.10
2022-08-20T01:43:06.094Z,9.75
2022-08-20T01:46:11.648Z,9.73
2022-08-20T01:49:24.755Z,11.15
2022-08-20T01:52:41.337Z,7.65
2022-08-20T01:55:46.471Z,11.55
2022-08-20T01:58:56.047Z,8.60
2022-08-20T02:02:04.574Z,9.70
2022-08-20T02:05:10.682Z,11.70
2022-08-20T02:08:15.110Z,9.30
2022-08-20T02:11:20.252Z,21.02
2022-08-20T02:14:26.780Z,9.65
2022-08-20T02:17:31.446Z,7.97
2022-08-20T02:20:37.444Z,18.10
2022-08-20T02:23:42.370Z,8.95
2022-08-20T02:26:47.618Z,10.40
2022-08-20T02:29:53.126Z,12.85
2022-08-20T02:32:58.493Z,18.42
2022-08-20T02:36:03.858Z,11.88
2022-08-20T02:39:10.791Z,13.73
2022-08-20T02:42:15.306Z,14.23
2022-08-20T02:45:22.473Z,16.52
2022-08-20T02:48:27.538Z,14.00
2022-08-20T02:51:33.394Z,10.23
2022-08-20T02:54:38.050Z,18.42
2022-08-20T02:57:43.603Z,14.20
2022-08-20T03:00:49.182Z,15.35
2022-08-20T03:03:54.754Z,12.27
2022-08-20T03:06:59.494Z,12.18
2022-08-20T03:10:04.363Z,13.68
2022-08-20T03:13:12.384Z,14.93
2022-08-20T03:16:17.239Z,12.65
2022-08-20T03:19:23.058Z,13.10
2022-08-20T03:22:27.998Z,11.95
2022-08-20T03:25:33.236Z,15.43
2022-08-20T03:28:37.799Z,13.35
2022-08-20T03:31:42.221Z,14.80
2022-08-20T03:34:46.844Z,16.38
2022-08-20T03:37:51.930Z,18.33
2022-08-20T03:40:56.437Z,12.85
2022-08-20T03:44:00.809Z,12.65
2022-08-20T03:47:07.885Z,15.27
2022-08-20T03:50:14.705Z,12.70
2022-08-20T03:53:32.048Z,11.15
2022-08-20T03:56:36.858Z,15.23
2022-08-20T03:59:42.897Z,13.02
2022-08-20T04:02:47.608Z,11.95
2022-08-20T04:05:52.355Z,17.63
2022-08-20T04:08:57.234Z,16.58
2022-08-20T04:12:02.167Z,15.77
2022-08-20T04:15:15.469Z,17.48
2022-08-20T04:18:24.161Z,15.70
2022-08-20T04:21:29.673Z,16.42
2022-08-20T04:24:37.340Z,15.57
2022-08-20T04:30:51.702Z,18.10
2022-08-20T04:33:56.759Z,17.23
2022-08-20T04:37:01.190Z,16.45
2022-08-20T04:40:28.022Z,22.23
2022-08-20T04:43:35.174Z,19.90
2022-08-20T04:46:40.063Z,20.88
2022-08-20T04:49:45.878Z,25.92
2022-08-20T04:52:50.683Z,27.58
2022-08-20T05:02:05.377Z,17.67
2022-08-20T05:05:11.052Z,21.02
2022-08-20T05:08:19.992Z,21.58
2022-08-20T05:11:34.081Z,26.58
2022-08-20T05:14:42.225Z,27.02
2022-08-20T05:17:47.314Z,25.75
2022-08-20T05:20:52.672Z,25.42
2022-08-20T05:23:57.017Z,26.33
2022-08-20T05:27:01.575Z,25.20
2022-08-20T05:30:13.644Z,29.88
2022-08-20T05:33:20.651Z,23.95
2022-08-20T05:36:24.999Z,23.35
2022-08-20T05:39:30.407Z,26.13
2022-08-20T05:42:37.559Z,24.90
2022-08-20T05:45:43.901Z,23.33
2022-08-20T05:48:48.818Z,21.23
2022-08-20T05:51:53.556Z,18.75
2022-08-20T05:54:57.814Z,26.65
2022-08-20T05:58:04.510Z,22.92
2022-08-20T06:01:09.278Z,23.10
2022-08-20T06:04:26.866Z,22.90
2022-08-20T06:07:31.841Z,21.20
2022-08-20T06:10:38.537Z,24.63
2022-08-20T06:13:47.099Z,21.40
2022-08-20T06:16:57.861Z,24.50
2022-08-20T06:20:07.806Z,33.47
2022-08-20T06:23:13.277Z,21.75
2022-08-20T06:26:28.942Z,19.25
2022-08-20T06:29:36.395Z,24.30
2022-08-20T06:32:41.107Z,31.48
2022-08-20T06:35:45.559Z,25.73
2022-08-20T06:38:50.050Z,21.92
2022-08-20T06:41:56.151Z,22.38
2022-08-20T06:45:04.974Z,24.45
2022-08-20T06:48:15.323Z,20.98
2022-08-20T06:51:21.763Z,19.88
2022-08-20T06:54:28.663Z,20.17
2022-08-20T06:57:35.414Z,19.70
2022-08-20T07:00:42.383Z,20.83
2022-08-20T07:03:55.032Z,19.77
2022-08-20T07:07:01.799Z,19.90
2022-08-20T07:10:09.290Z,19.52
2022-08-20T07:13:15.669Z,24.25
2022-08-20T07:16:20.206Z,21.13
2022-08-20T07:19:24.620Z,20.65
2022-08-20T07:22:29.063Z,19.48
2022-08-20T07:25:34.017Z,21.30
2022-08-20T07:28:38.240Z,18.55
2022-08-20T07:32:01.232Z,16.35
2022-08-20T07:35:12.221Z,17.48
2022-08-20T07:38:26.297Z,14.63
2022-08-20T07:41:30.957Z,17.27
2022-08-20T07:44:35.239Z,16.92
2022-08-20T07:47:43.284Z,16.02
2022-08-20T07:50:49.993Z,13.25
2022-08-20T07:53:54.711Z,16.20
2022-08-20T07:57:04.514Z,17.48
2022-08-20T08:00:11.568Z,18.88
2022-08-20T08:03:16.620Z,25.13
2022-08-20T08:06:30.554Z,16.55
2022-08-20T08:09:36.073Z,22.50
2022-08-20T08:12:47.453Z,18.77
2022-08-20T08:15:51.819Z,22.15
2022-08-20T08:18:56.866Z,20.90
2022-08-20T08:22:01.220Z,21.40
2022-08-20T08:25:06.195Z,22.48
2022-08-20T08:28:14.257Z,18.15
2022-08-20T08:31:18.650Z,21.45
2022-08-20T08:34:25.275Z,19.90
2022-08-20T08:37:31.004Z,17.40
2022-08-20T08:40:35.207Z,12.27
2022-08-20T08:43:40.157Z,17.90
2022-08-20T08:46:49.563Z,14.65
2022-08-20T08:49:56.062Z,13.10
2022-08-20T08:53:02.666Z,10.90
2022-08-20T08:56:08.353Z,9.60
2022-08-20T08:59:13.174Z,9.32
2022-08-20T09:02:23.188Z,10.35
2022-08-20T09:05:41.237Z,15.63
2022-08-20T09:08:51.079Z,13.57
2022-08-20T09:12:02.393Z,8.88
2022-08-20T09:15:07.278Z,10.82
2022-08-20T09:18:11.767Z,12.02
2022-08-20T09:21:16.164Z,11.60
2022-08-20T09:24:20.722Z,9.00
2022-08-20T09:27:25.106Z,8.25
2022-08-20T09:30:29.404Z,10.02
2022-08-20T09:33:33.839Z,13.75
2022-08-20T09:36:38.291Z,8.60
2022-08-20T09:39:43.351Z,12.73
2022-08-20T09:42:47.923Z,5.65
2022-08-20T09:45:52.602Z,8.73
2022-08-20T09:48:57.029Z,7.43
2022-08-20T09:52:01.762Z,7.30
2022-08-20T09:55:26.252Z,5.55
2022-08-20T10:01:38.515Z,4.10
2022-08-20T10:04:42.968Z,3.53
2022-08-20T10:07:47.271Z,4.95
2022-08-20T10:10:52.205Z,2.00
2022-08-20T10:13:57.154Z,4.75
2022-08-20T10:17:03.293Z,5.32
2022-08-20T10:20:10.718Z,2.10
2022-08-20T10:23:15.267Z,2.50
2022-08-20T10:26:19.890Z,2.15
2022-08-20T10:29:26.047Z,2.65
2022-08-20T10:32:30.745Z,6.43
2022-08-20T10:35:35.107Z,5.32
2022-08-20T10:38:40.048Z,1.95
2022-08-20T10:41:44.814Z,5.22
2022-08-20T10:44:49.619Z,3.33
2022-08-20T10:47:54.044Z,2.78
2022-08-20T10:50:58.511Z,2.97
2022-08-20T10:54:06.316Z,2.47
2022-08-20T10:57:20.009Z,2.38
2022-08-20T11:00:24.825Z,3.80
2022-08-20T11:03:29.302Z,0.88
2022-08-20T11:06:33.773Z,3.78
2022-08-20T11:09:38.706Z,2.22
2022-08-20T11:12:45.550Z,4.72
2022-08-20T11:15:50.939Z,0.85
2022-08-20T11:18:55.507Z,1.85
2022-08-20T11:21:59.974Z,0.80
2022-08-20T11:25:06.086Z,0.95
2022-08-20T11:28:10.813Z,5.30
2022-08-20T11:31:15.754Z,5.53
2022-08-20T11:34:20.323Z,7.13
2022-08-20T11:37:25.449Z,2.85
2022-08-20T11:40:30.621Z,4.70
2022-08-20T11:43:35.386Z,5.63
2022-08-20T11:46:39.961Z,4.68
2022-08-20T11:49:44.338Z,5.53
2022-08-20T11:52:49.317Z,1.67
2022-08-20T11:55:53.980Z,4.50
2022-08-20T11:58:58.431Z,5.88
2022-08-20T12:02:03.686Z,6.28
2022-08-20T12:05:09.578Z,4.80
2022-08-20T12:08:25.221Z,6.47
2022-08-20T12:11:32.265Z,6.00
2022-08-20T12:14:36.673Z,4.78
2022-08-20T12:17:41.215Z,2.25
2022-08-20T12:20:45.546Z,5.07
2022-08-20T12:23:49.995Z,4.55
2022-08-20T12:26:54.351Z,4.93
2022-08-20T12:30:01.830Z,9.80
2022-08-20T12:33:06.391Z,3.63
2022-08-20T12:36:11.101Z,7.45
2022-08-20T12:39:15.795Z,5.53
2022-08-20T12:42:20.938Z,4.25
2022-08-20T12:45:25.722Z,3.08
2022-08-20T12:48:30.057Z,5.60
2022-08-20T12:51:34.484Z,11.70
2022-08-20T12:54:39.016Z,9.95
2022-08-20T12:57:49.812Z,4.47
2022-08-20T13:00:54.447Z,4.72
2022-08-20T13:03:58.881Z,7.22
2022-08-20T13:07:04.308Z,6.80
2022-08-20T13:10:12.256Z,3.58
2022-08-20T13:13:20.608Z,4.20
2022-08-20T13:16:25.749Z,8.50
2022-08-20T13:19:31.463Z,6.90
2022-08-20T13:22:36.455Z,6.32
2022-08-20T13:25:41.166Z,5.13
2022-08-20T13:28:45.483Z,3.05
2022-08-20T13:31:49.903Z,4.28
2022-08-20T13:34:54.175Z,3.30
2022-08-20T13:37:58.453Z,5.68
2022-08-20T13:41:03.024Z,5.15
2022-08-20T13:44:07.672Z,3.92
2022-08-20T13:47:28.148Z,4.05
2022-08-20T13:50:32.761Z,6.95
2022-08-20T13:53:37.230Z,5.07
2022-08-20T13:56:41.963Z,5.88
2022-08-20T13:59:49.469Z,5.10
2022-08-20T14:02:54.138Z,5.25
2022-08-20T14:06:00.874Z,3.15
2022-08-20T14:09:05.343Z,4.32
2022-08-20T14:12:11.343Z,6.40
2022-08-20T14:15:16.783Z,5.20
2022-08-20T14:18:21.356Z,3.38
2022-08-20T14:21:25.814Z,4.47
2022-08-20T14:24:30.226Z,8.52
2022-08-20T14:27:36.111Z,3.55
2022-08-20T14:30:41.851Z,5.80
2022-08-20T14:33:46.132Z,4.65
2022-08-20T14:36:50.404Z,3.78
2022-08-20T14:39:57.856Z,3.28
2022-08-20T14:43:02.136Z,7.25
2022-08-20T14:46:06.386Z,2.03
2022-08-20T14:49:10.959Z,2.88
2022-08-20T14:52:17.030Z,3.50
2022-08-20T14:55:25.773Z,3.22
2022-08-20T14:58:30.224Z,4.72
2022-08-20T15:01:34.616Z,3.78
2022-08-20T15:04:40.870Z,2.72
2022-08-20T15:07:48.999Z,3.90
2022-08-20T15:10:56.062Z,3.05
2022-08-20T15:14:00.306Z,4.57
2022-08-20T15:17:04.762Z,5.40
2022-08-20T15:20:20.351Z,2.33
2022-08-20T15:23:25.238Z,3.22
2022-08-20T15:26:29.720Z,4.20
2022-08-20T15:29:34.298Z,3.28
2022-08-20T15:32:38.942Z,5.40
2022-08-20T15:35:43.363Z,4.68
2022-08-20T15:38:47.778Z,4.60
2022-08-20T15:41:52.160Z,4.18
2022-08-20T15:44:56.619Z,3.22
2022-08-20T15:48:15.167Z,4.18
2022-08-20T15:51:23.044Z,6.13
2022-08-20T15:54:29.699Z,3.33
2022-08-20T15:57:59.324Z,2.20
2022-08-20T16:01:25.140Z,2.88
2022-08-20T16:04:52.064Z,2.50
2022-08-20T16:08:00.867Z,1.73
2022-08-20T16:11:27.249Z,4.85
2022-08-20T16:14:37.950Z,2.25
2022-08-20T16:18:14.474Z,2.63
2022-08-20T16:21:42.626Z,2.45
2022-08-20T16:24:47.860Z,8.52
2022-08-20T16:28:03.010Z,3.25
2022-08-20T16:31:14.077Z,2.50
2022-08-20T16:34:34.624Z,9.88
2022-08-20T16:37:52.625Z,4.43
2022-08-20T16:41:06.996Z,4.97
2022-08-20T16:44:14.048Z,2.97
2022-08-20T16:47:21.331Z,3.08
2022-08-20T16:50:33.579Z,5.43
2022-08-20T16:53:38.951Z,5.05
2022-08-20T16:56:46.758Z,5.13
2022-08-20T16:59:59.257Z,7.03
2022-08-20T17:03:07.572Z,3.83
2022-08-20T17:06:37.004Z,6.55
2022-08-20T17:09:43.841Z,7.75
2022-08-20T17:13:00.849Z,8.55
2022-08-20T17:16:19.336Z,8.52
2022-08-20T17:19:30.704Z,3.20
2022-08-20T17:22:42.962Z,5.85
2022-08-20T17:26:01.009Z,2.83
2022-08-20T17:29:22.027Z,3.42
2022-08-20T17:32:29.017Z,3.65
2022-08-20T17:35:42.979Z,4.50
2022-08-20T17:38:52.708Z,10.90
2022-08-20T17:42:04.298Z,8.43
2022-08-20T17:45:15.468Z,3.13
2022-08-20T17:48:33.145Z,6.38
2022-08-20T17:51:45.993Z,5.90
2022-08-20T17:54:50.566Z,3.03
2022-08-20T17:57:59.337Z,6.22
2022-08-20T18:01:04.512Z,5.90
2022-08-20T18:04:14.109Z,3.45
2022-08-20T18:07:27.480Z,7.47
2022-08-20T18:10:42.187Z,3.63
2022-08-20T18:14:05.029Z,6.13
2022-08-20T18:17:28.115Z,6.65
2022-08-20T18:21:00.597Z,4.78
2022-08-20T18:24:12.097Z,7.63
2022-08-20T18:27:20.435Z,8.30
2022-08-20T18:30:26.622Z,5.60
2022-08-20T18:33:35.435Z,11.05
2022-08-20T18:36:40.010Z,13.48
2022-08-20T18:39:46.955Z,7.75
2022-08-20T18:42:51.283Z,4.13
2022-08-20T18:45:55.772Z,6.28
2022-08-20T18:49:03.367Z,8.85
2022-08-20T18:52:26.161Z,10.80
2022-08-20T18:55:32.622Z,5.75
2022-08-20T18:59:02.733Z,3.88
2022-08-20T19:02:22.082Z,4.57
2022-08-20T19:05:54.238Z,6.22
2022-08-20T19:09:29.276Z,7.25
2022-08-20T19:12:52.332Z,2.67
2022-08-20T19:16:05.851Z,4.18
2022-08-20T19:19:16.933Z,3.83
2022-08-20T19:22:21.545Z,1.58
2022-08-20T19:25:31.848Z,6.55
2022-08-20T19:28:44.306Z,5.03
2022-08-20T19:31:48.801Z,4.93
2022-08-20T19:34:59.824Z,6.75
2022-08-20T19:38:08.146Z,5.15
2022-08-20T19:41:20.204Z,3.42
2022-08-20T19:44:40.889Z,8.73
2022-08-20T19:48:27.576Z,4.80
2022-08-20T19:51:47.909Z,4.88
2022-08-20T19:55:00.013Z,5.88
2022-08-20T19:58:26.027Z,6.03
2022-08-20T20:01:32.159Z,3.72
2022-08-20T20:04:55.565Z,3.65
2022-08-20T20:08:04.523Z,7.53
2022-08-20T20:11:15.902Z,5.40
2022-08-20T20:14:22.995Z,3.63
2022-08-20T20:17:33.541Z,5.57
2022-08-20T20:20:55.820Z,5.95
2022-08-20T20:24:03.152Z,2.58
2022-08-20T20:27:20.293Z,7.03
2022-08-20T20:30:30.260Z,11.35
2022-08-20T20:33:43.379Z,3.00
2022-08-20T20:36:48.366Z,3.08
2022-08-20T20:40:02.395Z,4.00
2022-08-20T20:43:10.111Z,4.20
2022-08-20T20:46:20.378Z,4.25
2022-08-20T20:49:36.982Z,3.17
2022-08-20T20:52:51.357Z,4.10
2022-08-20T20:55:57.303Z,4.53
2022-08-20T20:59:06.507Z,3.53
2022-08-20T21:02:10.792Z,4.57
2022-08-20T21:08:20.910Z,4.57
2022-08-20T21:14:29.807Z,2.53
2022-08-20T21:20:38.356Z,4.57
2022-08-20T21:23:42.994Z,5.50
2022-08-20T21:26:48.503Z,2.80
2022-08-20T21:29:53.880Z,5.03
2022-08-20T21:32:58.270Z,4.78
2022-08-20T21:36:03.166Z,4.43
2022-08-20T21:39:08.424Z,5.88
2022-08-20T21:42:28.551Z,3.47
2022-08-20T21:45:33.530Z,1.58
2022-08-20T21:48:38.855Z,3.47
2022-08-20T21:51:43.300Z,4.47
2022-08-20T21:54:47.726Z,4.25
2022-08-20T21:57:52.210Z,1.38
2022-08-20T22:01:03.524Z,3.03
2022-08-20T22:04:08.005Z,1.40
2022-08-20T22:10:16.839Z,9.70
2022-08-20T22:13:22.877Z,5.28
2022-08-20T22:16:27.976Z,5.63
2022-08-20T22:19:32.511Z,1.95
2022-08-20T22:22:37.089Z,3.15
2022-08-20T22:25:41.786Z,4.85
2022-08-20T22:28:51.243Z,7.18
2022-08-20T22:31:55.778Z,7.38
2022-08-20T22:35:00.288Z,3.65
2022-08-20T22:38:04.518Z,2.28
2022-08-20T22:41:09.895Z,4.35
2022-08-20T22:44:14.857Z,3.10
2022-08-20T22:47:26.202Z,4.55
2022-08-20T22:50:30.741Z,2.30
2022-08-20T22:53:35.353Z,7.20
2022-08-20T22:56:40.860Z,6.55
2022-08-20T22:59:49.685Z,5.13
2022-08-20T23:02:59.597Z,3.55
2022-08-20T23:06:04.747Z,2.17
2022-08-20T23:09:12.837Z,7.03
2022-08-20T23:12:17.829Z,4.50
2022-08-20T23:18:27.046Z,6.53
2022-08-20T23:21:31.263Z,2.33
2022-08-20T23:27:44.758Z,6.10
2022-08-20T23:30:50.021Z,2.58
2022-08-20T23:33:54.587Z,4.07
2022-08-20T23:37:01.144Z,3.25
2022-08-20T23:40:06.968Z,4.72
2022-08-20T23:43:11.436Z,4.68
2022-08-20T23:49:20.678Z,4.85
2022-08-20T23:52:24.739Z,2.28
2022-08-20T23:58:33.943Z,5.47
